createdAt,value
2022-11-17T00:00:23.623Z,100.00
2022-11-17T00:15:23.702Z,100.00
2022-11-17T00:30:23.605Z,100.00
2022-11-17T00:45:23.670Z,100.00
2022-11-17T01:00:26.685Z,100.00
2022-11-17T01:15:23.719Z,100.00
2022-11-17T01:30:23.758Z,100.00
2022-11-17T01:45:23.738Z,100.00
2022-11-17T02:00:26.909Z,100.00
2022-11-17T02:15:23.630Z,100.00
2022-11-17T02:30:23.625Z,100.00
2022-11-17T02:45:23.687Z,100.00
2022-11-17T03:00:23.876Z,100.00
2022-11-17T03:15:23.777Z,100.00
2022-11-17T03:30:24.079Z,100.00
2022-11-17T03:45:23.942Z,100.00
2022-11-17T04:00:30.777Z,100.00
2022-11-17T04:15:23.835Z,100.00
2022-11-17T04:30:23.930Z,100.00
2022-11-17T04:45:23.933Z,100.00
2022-11-17T05:00:32.356Z,100.00
2022-11-17T05:15:23.970Z,100.00
2022-11-17T05:30:27.222Z,100.00
2022-11-17T05:45:24.695Z,100.00
2022-11-17T06:00:35.702Z,100.00
2022-11-17T06:15:24.488Z,100.00
2022-11-17T06:30:24.126Z,100.00
2022-11-17T06:45:24.090Z,100.00
2022-11-17T07:00:41.355Z,100.00
2022-11-17T07:15:24.220Z,100.00
2022-11-17T07:30:24.375Z,100.00
2022-11-17T07:45:28.687Z,100.00
2022-11-17T08:00:32.200Z,100.00
2022-11-17T08:15:24.154Z,100.00
2022-11-17T08:30:33.225Z,100.00
2022-11-17T08:45:33.190Z,100.00
2022-11-17T09:00:36.566Z,100.00
2022-11-17T09:15:23.250Z,100.00
2022-11-17T09:30:23.479Z,100.00
2022-11-17T09:45:23.449Z,100.00
2022-11-17T10:00:28.053Z,100.00
2022-11-17T10:15:23.902Z,100.00
2022-11-17T10:30:23.404Z,100.00
2022-11-17T10:45:23.724Z,100.00
2022-11-17T11:00:32.412Z,100.00
2022-11-17T11:15:23.425Z,100.00
2022-11-17T11:30:27.353Z,100.00
2022-11-17T11:45:23.902Z,100.00
2022-11-17T12:00:40.161Z,100.00
2022-11-17T12:15:23.720Z,100.00
2022-11-17T12:30:23.783Z,95.90
2022-11-17T12:45:23.569Z,92.83
2022-11-17T13:00:35.148Z,93.13
2022-11-17T13:15:23.634Z,90.87
2022-11-17T13:30:24.630Z,82.73
2022-11-17T13:45:23.484Z,82.17
2022-11-17T14:00:33.637Z,82.30
2022-11-17T14:15:23.632Z,81.07
2022-11-17T14:30:24.911Z,83.10
2022-11-17T14:45:23.553Z,82.77
2022-11-17T15:00:29.023Z,84.43
2022-11-17T15:15:23.778Z,85.40
2022-11-17T15:30:25.708Z,95.07
2022-11-17T15:45:23.882Z,100.00
2022-11-17T16:00:33.638Z,100.00
2022-11-17T16:15:23.839Z,100.00
2022-11-17T16:30:24.033Z,100.00
2022-11-17T16:45:23.719Z,100.00
2022-11-17T17:00:26.363Z,100.00
2022-11-17T17:15:24.110Z,100.00
2022-11-17T17:30:24.015Z,100.00
2022-11-17T17:45:23.927Z,100.00
2022-11-17T18:00:28.049Z,100.00
2022-11-17T18:15:23.903Z,100.00
2022-11-17T18:30:29.437Z,100.00
2022-11-17T18:45:24.005Z,100.00
2022-11-17T19:00:30.856Z,100.00
2022-11-17T19:15:23.954Z,100.00
2022-11-17T19:30:24.083Z,100.00
2022-11-17T19:45:24.346Z,100.00
2022-11-17T20:00:24.946Z,100.00
2022-11-17T20:15:34.351Z,100.00
2022-11-17T20:30:34.970Z,100.00
2022-11-17T20:45:33.125Z,100.00
2022-11-17T21:00:36.490Z,100.00
2022-11-17T21:15:23.262Z,100.00
2022-11-17T21:30:25.533Z,100.00
2022-11-17T21:45:23.697Z,100.00
2022-11-17T22:00:39.300Z,100.00
2022-11-17T22:15:23.517Z,100.00
2022-11-17T22:30:23.636Z,100.00
2022-11-17T22:45:23.651Z,100.00
2022-11-17T23:15:23.580Z,100.00
2022-11-17T23:30:23.781Z,100.00
2022-11-17T23:45:23.529Z,100.00
